createdAt,value
2022-09-22T00:01:31.575Z,80.11
2022-09-22T00:04:03.876Z,81.63
2022-09-22T00:06:39.107Z,79.02
2022-09-22T00:09:11.110Z,79.35
2022-09-22T00:11:42.750Z,81.43
2022-09-22T00:14:20.892Z,80.85
2022-09-22T00:16:53.686Z,80.86
2022-09-22T00:19:23.962Z,78.52
2022-09-22T00:21:52.376Z,78.31
2022-09-22T00:24:24.686Z,78.62
2022-09-22T00:26:57.506Z,78.91
2022-09-22T00:29:26.629Z,76.04
2022-09-22T00:31:55.195Z,75.78
2022-09-22T00:34:25.130Z,77.16
2022-09-22T00:36:53.386Z,75.92
2022-09-22T00:39:21.970Z,74.39
2022-09-22T00:41:52.134Z,76.08
2022-09-22T00:44:30.022Z,78.47
2022-09-22T00:47:06.876Z,79.09
2022-09-22T00:49:40.432Z,76.50
2022-09-22T00:52:08.884Z,75.41
2022-09-22T00:54:37.098Z,77.67
2022-09-22T00:57:07.290Z,75.59
2022-09-22T00:59:35.644Z,73.75
2022-09-22T01:02:03.510Z,75.69
2022-09-22T01:04:31.319Z,75.77
2022-09-22T01:06:59.782Z,75.59
2022-09-22T01:09:28.515Z,74.59
2022-09-22T01:11:56.188Z,73.79
2022-09-22T01:14:41.423Z,76.86
2022-09-22T01:17:32.147Z,76.78
2022-09-22T01:20:25.918Z,80.50
2022-09-22T01:23:17.405Z,76.73
2022-09-22T01:26:14.502Z,74.44
2022-09-22T01:28:54.194Z,75.75
2022-09-22T01:31:38.793Z,72.32
2022-09-22T01:34:15.983Z,76.82
2022-09-22T01:37:09.583Z,76.52
2022-09-22T01:40:02.728Z,73.53
2022-09-22T01:42:37.327Z,73.14
2022-09-22T01:45:26.337Z,73.35
2022-09-22T01:47:57.898Z,76.14
2022-09-22T01:50:29.066Z,77.18
2022-09-22T01:53:00.998Z,76.60
2022-09-22T01:55:32.520Z,76.87
2022-09-22T01:58:03.986Z,78.97
2022-09-22T02:00:32.860Z,78.01
2022-09-22T02:03:14.889Z,82.72
2022-09-22T02:05:47.006Z,82.07
2022-09-22T02:08:36.787Z,80.95
2022-09-22T02:11:12.241Z,81.11
2022-09-22T02:13:40.961Z,80.88
2022-09-22T02:16:10.101Z,79.65
2022-09-22T02:18:46.845Z,79.42
2022-09-22T02:21:15.759Z,79.28
2022-09-22T02:23:45.053Z,76.22
2022-09-22T02:26:13.871Z,76.68
2022-09-22T02:28:43.526Z,79.21
2022-09-22T02:31:20.125Z,79.28
2022-09-22T02:33:48.584Z,79.73
2022-09-22T02:36:26.043Z,80.12
2022-09-22T02:39:10.047Z,78.64
2022-09-22T02:42:04.722Z,81.11
2022-09-22T02:44:54.878Z,77.69
2022-09-22T02:47:32.661Z,76.28
2022-09-22T02:50:01.080Z,77.37
2022-09-22T02:52:29.907Z,75.29
2022-09-22T02:54:57.502Z,74.93
2022-09-22T02:57:25.427Z,74.77
2022-09-22T02:59:53.097Z,77.58
2022-09-22T03:02:20.661Z,77.33
2022-09-22T03:04:49.197Z,75.32
2022-09-22T03:07:16.855Z,75.91
2022-09-22T03:09:44.495Z,76.17
2022-09-22T03:12:12.422Z,77.75
2022-09-22T03:14:40.188Z,76.37
2022-09-22T03:17:07.866Z,75.28
2022-09-22T03:19:36.001Z,77.43
2022-09-22T03:22:03.707Z,79.09
2022-09-22T03:24:31.788Z,78.75
2022-09-22T03:27:00.012Z,78.84
2022-09-22T03:29:27.792Z,81.84
2022-09-22T03:31:55.436Z,81.36
2022-09-22T03:34:23.280Z,79.92
2022-09-22T03:36:50.991Z,78.45
2022-09-22T03:39:18.589Z,79.62
2022-09-22T03:41:46.828Z,76.66
2022-09-22T03:44:14.634Z,76.88
2022-09-22T03:46:42.301Z,76.65
2022-09-22T03:49:10.266Z,76.12
2022-09-22T03:51:37.864Z,76.68
2022-09-22T03:54:05.640Z,78.41
2022-09-22T03:56:33.750Z,77.80
2022-09-22T03:59:01.450Z,80.82
2022-09-22T04:01:30.055Z,80.81
2022-09-22T04:03:58.339Z,80.63
2022-09-22T04:06:26.037Z,79.24
2022-09-22T04:08:53.700Z,76.97
2022-09-22T04:11:21.824Z,75.48
2022-09-22T04:13:49.381Z,77.83
2022-09-22T04:16:17.563Z,77.79
2022-09-22T04:18:45.618Z,75.89
2022-09-22T04:21:13.465Z,75.21
2022-09-22T04:23:41.331Z,76.71
2022-09-22T04:26:09.314Z,77.99
2022-09-22T04:28:36.951Z,78.63
2022-09-22T04:31:04.659Z,79.83
2022-09-22T04:33:32.926Z,77.53
2022-09-22T04:36:00.645Z,78.55
2022-09-22T04:38:28.691Z,76.89
2022-09-22T04:40:57.458Z,79.26
2022-09-22T04:43:24.961Z,78.04
2022-09-22T04:45:52.559Z,80.14
2022-09-22T04:48:20.842Z,81.29
2022-09-22T04:50:48.528Z,77.76
2022-09-22T04:53:16.154Z,78.00
2022-09-22T04:55:44.087Z,76.92
2022-09-22T04:58:11.713Z,79.73
2022-09-22T05:00:39.360Z,76.84
2022-09-22T05:03:12.329Z,78.31
2022-09-22T05:05:40.086Z,78.68
2022-09-22T05:08:08.238Z,82.65
2022-09-22T05:10:36.881Z,80.20
2022-09-22T05:13:04.696Z,81.54
2022-09-22T05:15:34.742Z,79.58
2022-09-22T05:18:02.482Z,78.35
2022-09-22T05:20:32.335Z,76.81
2022-09-22T05:23:00.623Z,76.51
2022-09-22T05:25:28.152Z,75.04
2022-09-22T05:27:56.850Z,73.02
2022-09-22T05:30:26.406Z,71.99
2022-09-22T05:32:54.003Z,71.91
2022-09-22T05:35:23.662Z,68.94
2022-09-22T05:37:52.561Z,67.02
2022-09-22T05:40:24.167Z,69.33
2022-09-22T05:42:53.147Z,68.46
2022-09-22T05:45:21.724Z,66.17
2022-09-22T05:47:49.340Z,64.76
2022-09-22T05:50:20.068Z,64.16
2022-09-22T05:52:47.780Z,66.43
2022-09-22T05:55:15.723Z,66.54
2022-09-22T05:57:44.075Z,66.78
2022-09-22T06:00:13.396Z,65.67
2022-09-22T06:02:43.687Z,64.56
2022-09-22T06:05:11.497Z,65.74
2022-09-22T06:07:39.850Z,64.41
2022-09-22T06:10:10.519Z,63.13
2022-09-22T06:12:38.654Z,67.97
2022-09-22T06:15:07.209Z,65.08
2022-09-22T06:17:35.244Z,63.50
2022-09-22T06:20:03.301Z,65.36
2022-09-22T06:22:31.093Z,63.74
2022-09-22T06:24:59.380Z,63.32
2022-09-22T06:27:27.280Z,64.35
2022-09-22T06:29:55.406Z,63.51
2022-09-22T06:32:23.685Z,64.06
2022-09-22T06:34:51.373Z,64.02
2022-09-22T06:37:20.388Z,64.20
2022-09-22T06:39:48.308Z,60.46
2022-09-22T06:42:17.417Z,60.67
2022-09-22T06:44:45.552Z,59.35
2022-09-22T06:47:13.647Z,59.61
2022-09-22T06:49:42.916Z,58.91
2022-09-22T06:52:13.808Z,63.59
2022-09-22T06:54:42.904Z,59.13
2022-09-22T06:57:11.659Z,60.82
2022-09-22T06:59:40.883Z,58.84
2022-09-22T07:02:10.092Z,60.63
2022-09-22T07:04:37.819Z,59.53
2022-09-22T07:07:05.414Z,59.60
2022-09-22T07:09:33.296Z,60.79
2022-09-22T07:12:01.128Z,58.34
2022-09-22T07:14:29.776Z,56.75
2022-09-22T07:16:57.818Z,57.28
2022-09-22T07:19:25.621Z,59.08
2022-09-22T07:21:53.193Z,59.25
2022-09-22T07:24:21.401Z,60.07
2022-09-22T07:26:50.159Z,58.40
2022-09-22T07:29:17.964Z,59.41
2022-09-22T07:31:45.959Z,60.01
2022-09-22T07:34:14.325Z,57.53
2022-09-22T07:36:42.125Z,58.98
2022-09-22T07:39:12.797Z,56.09
2022-09-22T07:41:44.023Z,56.62
2022-09-22T07:44:32.264Z,55.13
2022-09-22T07:47:01.006Z,58.07
2022-09-22T07:49:29.608Z,59.61
2022-09-22T07:51:57.805Z,59.57
2022-09-22T07:54:26.648Z,56.81
2022-09-22T07:56:58.899Z,57.95
2022-09-22T07:59:27.367Z,56.53
2022-09-22T08:01:55.876Z,56.34
2022-09-22T08:04:24.515Z,53.86
2022-09-22T08:06:55.827Z,55.63
2022-09-22T08:09:25.291Z,56.42
2022-09-22T08:11:53.616Z,56.09
2022-09-22T08:14:23.183Z,54.02
2022-09-22T08:16:52.063Z,55.11
2022-09-22T08:19:20.259Z,54.86
2022-09-22T08:21:50.017Z,55.35
2022-09-22T08:24:22.959Z,54.71
2022-09-22T08:26:53.159Z,54.55
2022-09-22T08:29:22.263Z,52.97
2022-09-22T08:31:51.582Z,53.20
2022-09-22T08:34:20.265Z,55.82
2022-09-22T08:36:48.974Z,53.74
2022-09-22T08:39:18.054Z,51.56
2022-09-22T08:41:57.001Z,53.89
2022-09-22T08:44:32.944Z,53.00
2022-09-22T08:47:01.652Z,53.12
2022-09-22T08:49:52.214Z,51.13
2022-09-22T08:52:35.226Z,49.56
2022-09-22T08:55:03.556Z,50.52
2022-09-22T08:58:02.157Z,51.40
2022-09-22T09:00:39.172Z,46.80
2022-09-22T09:03:25.046Z,46.65
2022-09-22T09:06:01.551Z,50.30
2022-09-22T09:08:33.370Z,47.24
2022-09-22T09:11:26.488Z,46.98
2022-09-22T09:14:13.900Z,48.33
2022-09-22T09:16:46.914Z,48.70
2022-09-22T09:19:37.974Z,45.75
2022-09-22T09:22:25.395Z,47.26
2022-09-22T09:28:01.019Z,43.25
2022-09-22T09:30:34.353Z,43.37
2022-09-22T09:33:04.773Z,42.05
2022-09-22T09:35:53.827Z,42.89
2022-09-22T09:38:31.533Z,39.53
2022-09-22T09:41:08.315Z,42.08
2022-09-22T09:43:37.231Z,43.11
2022-09-22T09:46:11.881Z,42.36
2022-09-22T09:49:16.894Z,42.74
2022-09-22T09:51:50.020Z,42.88
2022-09-22T09:54:19.076Z,45.30
2022-09-22T09:57:05.350Z,45.44
2022-09-22T09:59:53.074Z,42.35
2022-09-22T10:02:32.703Z,43.05
2022-09-22T10:05:03.436Z,39.18
2022-09-22T10:07:41.038Z,41.37
2022-09-22T10:10:36.920Z,41.60
2022-09-22T10:13:18.346Z,42.50
2022-09-22T10:16:07.020Z,40.66
2022-09-22T10:18:44.049Z,41.43
2022-09-22T10:21:19.698Z,40.91
2022-09-22T10:24:09.744Z,43.68
2022-09-22T10:26:55.276Z,44.21
2022-09-22T10:29:24.382Z,42.11
2022-09-22T10:32:15.413Z,42.84
2022-09-22T10:37:21.324Z,40.33
2022-09-22T10:39:54.068Z,36.81
2022-09-22T10:42:33.497Z,40.25
2022-09-22T10:45:05.270Z,40.11
2022-09-22T10:47:43.508Z,37.88
2022-09-22T10:50:41.468Z,38.45
2022-09-22T10:53:25.748Z,38.65
2022-09-22T10:56:15.013Z,36.92
2022-09-22T10:58:43.003Z,36.90
2022-09-22T11:01:26.997Z,37.23
2022-09-22T11:04:14.407Z,37.29
2022-09-22T11:07:13.057Z,37.97
2022-09-22T11:10:06.342Z,37.17
2022-09-22T11:12:53.691Z,38.60
2022-09-22T11:15:40.092Z,37.18
2022-09-22T11:18:39.543Z,36.70
2022-09-22T11:21:13.866Z,38.08
2022-09-22T11:23:55.071Z,38.05
2022-09-22T11:27:01.462Z,36.49
2022-09-22T11:29:45.446Z,35.60
2022-09-22T11:32:36.534Z,37.53
2022-09-22T11:35:32.182Z,37.78
2022-09-22T11:38:28.600Z,35.79
2022-09-22T11:41:10.565Z,37.83
2022-09-22T11:43:41.840Z,37.34
2022-09-22T11:46:13.235Z,39.17
2022-09-22T11:48:47.280Z,35.71
2022-09-22T11:51:33.656Z,37.54
2022-09-22T11:54:26.794Z,36.80
2022-09-22T11:57:02.253Z,38.11
2022-09-22T11:59:52.002Z,36.72
2022-09-22T12:02:31.794Z,35.41
2022-09-22T12:05:03.454Z,36.80
2022-09-22T12:07:45.043Z,35.99
2022-09-22T12:10:20.685Z,34.91
2022-09-22T12:12:51.070Z,37.69
2022-09-22T12:15:35.681Z,35.14
2022-09-22T12:18:10.041Z,36.59
2022-09-22T12:20:41.266Z,35.62
2022-09-22T12:23:09.160Z,36.71
2022-09-22T12:25:49.393Z,40.56
2022-09-22T12:28:20.923Z,41.57
2022-09-22T12:31:07.394Z,39.96
2022-09-22T12:33:36.314Z,36.42
2022-09-22T12:36:04.773Z,35.05
2022-09-22T12:38:33.032Z,36.55
2022-09-22T12:41:04.238Z,35.89
2022-09-22T12:43:33.627Z,37.39
2022-09-22T12:46:06.248Z,37.60
2022-09-22T12:48:36.610Z,38.89
2022-09-22T12:51:16.832Z,37.09
2022-09-22T12:53:44.668Z,35.11
2022-09-22T12:56:42.854Z,35.96
2022-09-22T12:59:38.559Z,40.03
2022-09-22T13:02:18.722Z,41.01
2022-09-22T13:04:49.446Z,42.96
2022-09-22T13:07:44.117Z,41.21
2022-09-22T13:10:27.416Z,42.88
2022-09-22T13:13:01.144Z,42.88
2022-09-22T13:15:29.567Z,42.24
2022-09-22T13:17:58.265Z,44.34
2022-09-22T13:20:32.435Z,41.72
2022-09-22T13:23:11.738Z,39.87
2022-09-22T13:25:40.365Z,43.58
2022-09-22T13:28:08.279Z,47.31
2022-09-22T13:30:37.802Z,45.46
2022-09-22T13:33:06.208Z,44.30
2022-09-22T13:35:39.351Z,40.57
2022-09-22T13:38:07.454Z,42.64
2022-09-22T13:40:35.728Z,42.54
2022-09-22T13:43:07.733Z,41.56
2022-09-22T13:45:36.384Z,44.59
2022-09-22T13:48:10.453Z,44.88
2022-09-22T13:50:50.151Z,41.50
2022-09-22T13:53:19.547Z,42.46
2022-09-22T13:55:51.921Z,47.23
2022-09-22T13:58:24.562Z,44.11
2022-09-22T14:01:13.164Z,44.47
2022-09-22T14:03:42.323Z,45.41
2022-09-22T14:06:16.492Z,44.78
2022-09-22T14:08:46.504Z,45.60
2022-09-22T14:11:19.592Z,44.64
2022-09-22T14:13:54.410Z,48.56
2022-09-22T14:16:45.928Z,46.80
2022-09-22T14:19:17.921Z,44.06
2022-09-22T14:21:52.890Z,45.94
2022-09-22T14:24:20.999Z,48.15
2022-09-22T14:26:54.053Z,47.38
2022-09-22T14:29:27.297Z,48.27
2022-09-22T14:32:35.490Z,48.88
2022-09-22T14:35:07.617Z,48.42
2022-09-22T14:37:41.368Z,46.80
2022-09-22T14:40:22.226Z,47.35
2022-09-22T14:43:00.877Z,46.79
2022-09-22T14:45:32.140Z,50.50
2022-09-22T14:48:33.049Z,47.13
2022-09-22T14:51:02.324Z,45.95
2022-09-22T14:53:41.387Z,45.14
2022-09-22T14:56:18.423Z,46.36
2022-09-22T14:58:51.215Z,46.91
2022-09-22T15:01:46.126Z,44.06
2022-09-22T15:04:13.701Z,48.07
2022-09-22T15:06:43.108Z,42.81
2022-09-22T15:09:37.933Z,42.24
2022-09-22T15:12:06.653Z,43.89
2022-09-22T15:14:40.852Z,41.66
2022-09-22T15:17:53.728Z,43.74
2022-09-22T15:20:32.824Z,44.77
2022-09-22T15:23:02.101Z,46.66
2022-09-22T15:25:30.860Z,46.44
2022-09-22T15:27:59.379Z,45.91
2022-09-22T15:30:32.286Z,47.19
2022-09-22T15:32:59.867Z,46.57
2022-09-22T15:35:31.686Z,46.79
2022-09-22T15:38:01.190Z,46.55
2022-09-22T15:40:30.029Z,45.75
2022-09-22T15:43:12.166Z,49.00
2022-09-22T15:45:48.111Z,49.57
2022-09-22T15:48:25.746Z,50.44
2022-09-22T15:50:55.558Z,49.92
2022-09-22T15:53:23.989Z,50.41
2022-09-22T15:55:53.202Z,49.63
2022-09-22T15:58:23.386Z,51.02
2022-09-22T16:00:52.693Z,51.64
2022-09-22T16:03:23.917Z,53.45
2022-09-22T16:05:56.856Z,52.26
2022-09-22T16:08:44.061Z,52.60
2022-09-22T16:11:16.186Z,49.85
2022-09-22T16:13:44.690Z,50.70
2022-09-22T16:16:12.829Z,51.33
2022-09-22T16:18:42.185Z,50.42
2022-09-22T16:21:23.743Z,51.56
2022-09-22T16:23:53.683Z,52.95
2022-09-22T16:26:22.715Z,53.49
2022-09-22T16:28:51.464Z,52.53
2022-09-22T16:31:20.178Z,56.13
2022-09-22T16:33:54.163Z,53.47
2022-09-22T16:36:23.739Z,52.40
2022-09-22T16:38:52.313Z,55.79
2022-09-22T16:41:29.894Z,54.94
2022-09-22T16:43:58.394Z,54.06
2022-09-22T16:46:27.038Z,54.49
2022-09-22T16:49:10.052Z,56.24
2022-09-22T16:51:41.106Z,57.34
2022-09-22T16:54:13.304Z,57.98
2022-09-22T16:56:49.838Z,59.30
2022-09-22T16:59:22.624Z,58.06
2022-09-22T17:01:52.271Z,56.37
2022-09-22T17:04:20.191Z,56.00
2022-09-22T17:06:48.384Z,55.37
2022-09-22T17:09:17.262Z,57.47
2022-09-22T17:11:46.552Z,57.08
2022-09-22T17:14:25.720Z,55.44
2022-09-22T17:16:56.690Z,54.86
2022-09-22T17:19:27.043Z,55.20
2022-09-22T17:21:56.101Z,55.97
2022-09-22T17:24:25.476Z,56.76
2022-09-22T17:26:54.963Z,56.99
2022-09-22T17:29:28.408Z,55.99
2022-09-22T17:32:03.300Z,55.58
2022-09-22T17:34:33.392Z,55.76
2022-09-22T17:37:01.738Z,53.48
2022-09-22T17:39:30.474Z,55.97
2022-09-22T17:41:58.970Z,55.72
2022-09-22T17:44:29.292Z,55.51
2022-09-22T17:47:15.521Z,56.21
2022-09-22T17:50:02.760Z,53.98
2022-09-22T17:52:48.889Z,54.78
2022-09-22T17:55:22.354Z,54.61
2022-09-22T17:57:52.817Z,54.42
2022-09-22T18:00:22.248Z,51.64
2022-09-22T18:02:52.842Z,53.31
2022-09-22T18:05:25.591Z,54.97
2022-09-22T18:07:58.665Z,57.87
2022-09-22T18:10:33.501Z,55.41
2022-09-22T18:13:04.695Z,56.98
2022-09-22T18:15:36.338Z,57.54
2022-09-22T18:18:06.937Z,58.00
2022-09-22T18:20:36.037Z,54.65
2022-09-22T18:23:06.350Z,57.33
2022-09-22T18:25:35.959Z,55.02
2022-09-22T18:28:05.824Z,53.20
2022-09-22T18:30:34.873Z,51.39
2022-09-22T18:33:04.947Z,53.27
2022-09-22T18:35:33.842Z,51.63
2022-09-22T18:38:03.384Z,51.67
2022-09-22T18:40:34.600Z,52.35
2022-09-22T18:43:03.692Z,52.61
2022-09-22T18:45:39.064Z,52.14
2022-09-22T18:48:09.403Z,55.54
2022-09-22T18:50:38.295Z,54.41
2022-09-22T18:53:10.080Z,52.99
2022-09-22T18:55:38.687Z,52.38
2022-09-22T18:58:06.584Z,53.30
2022-09-22T19:00:34.475Z,53.90
2022-09-22T19:03:02.626Z,54.85
2022-09-22T19:05:30.413Z,54.00
2022-09-22T19:08:00.920Z,54.17
2022-09-22T19:10:29.043Z,54.69
2022-09-22T19:12:57.102Z,54.28
2022-09-22T19:15:25.827Z,55.33
2022-09-22T19:17:54.056Z,56.16
2022-09-22T19:20:24.140Z,58.41
2022-09-22T19:22:54.058Z,57.63
2022-09-22T19:25:22.754Z,62.72
2022-09-22T19:27:52.722Z,61.96
2022-09-22T19:30:23.959Z,60.16
2022-09-22T19:32:52.904Z,61.02
2022-09-22T19:35:21.294Z,61.46
2022-09-22T19:37:51.922Z,62.54
2022-09-22T19:40:24.808Z,62.24
2022-09-22T19:42:53.774Z,62.72
2022-09-22T19:45:24.037Z,61.20
2022-09-22T19:47:53.393Z,62.92
2022-09-22T19:50:21.452Z,62.96
2022-09-22T19:52:49.354Z,61.72
2022-09-22T19:55:20.910Z,61.38
2022-09-22T19:57:54.362Z,62.18
2022-09-22T20:00:26.416Z,63.70
2022-09-22T20:02:59.057Z,63.75
2022-09-22T20:05:30.212Z,65.59
2022-09-22T20:07:58.352Z,64.89
2022-09-22T20:10:26.044Z,65.18
2022-09-22T20:12:53.924Z,65.58
2022-09-22T20:15:22.103Z,64.14
2022-09-22T20:17:49.860Z,66.24
2022-09-22T20:20:20.750Z,66.63
2022-09-22T20:22:54.695Z,68.47
2022-09-22T20:25:27.794Z,71.50
2022-09-22T20:27:56.302Z,69.52
2022-09-22T20:30:24.472Z,71.64
2022-09-22T20:32:52.434Z,72.41
2022-09-22T20:35:22.004Z,69.30
2022-09-22T20:37:51.726Z,67.33
2022-09-22T20:40:21.409Z,67.76
2022-09-22T20:42:50.973Z,68.96
2022-09-22T20:45:21.010Z,66.63
2022-09-22T20:47:49.933Z,70.07
2022-09-22T20:50:17.604Z,68.29
2022-09-22T20:52:45.264Z,67.47
2022-09-22T20:55:13.334Z,67.14
2022-09-22T20:57:41.453Z,68.17
2022-09-22T21:00:10.043Z,68.14
2022-09-22T21:02:38.624Z,67.40
2022-09-22T21:05:06.495Z,67.06
2022-09-22T21:07:34.193Z,68.04
2022-09-22T21:10:21.057Z,66.86
2022-09-22T21:12:50.897Z,67.35
2022-09-22T21:15:20.004Z,65.90
2022-09-22T21:17:48.744Z,68.33
2022-09-22T21:20:16.305Z,68.65
2022-09-22T21:22:44.633Z,68.96
2022-09-22T21:25:12.326Z,68.25
2022-09-22T21:27:39.923Z,68.41
2022-09-22T21:30:08.371Z,67.71
2022-09-22T21:32:36.065Z,64.18
2022-09-22T21:35:03.904Z,64.14
2022-09-22T21:37:32.024Z,64.12
2022-09-22T21:39:59.964Z,65.62
2022-09-22T21:42:27.856Z,65.42
2022-09-22T21:44:55.834Z,66.52
2022-09-22T21:47:23.526Z,66.27
2022-09-22T21:49:51.346Z,64.74
2022-09-22T21:52:19.267Z,64.00
2022-09-22T21:54:47.017Z,65.48
2022-09-22T21:57:14.604Z,63.30
2022-09-22T21:59:42.544Z,62.91
2022-09-22T22:02:10.249Z,62.65
2022-09-22T22:04:38.330Z,62.39
2022-09-22T22:07:06.242Z,61.31
2022-09-22T22:09:33.964Z,62.25
2022-09-22T22:12:02.465Z,61.72
2022-09-22T22:14:33.572Z,61.35
2022-09-22T22:17:03.983Z,63.40
2022-09-22T22:19:32.128Z,65.49
2022-09-22T22:21:59.703Z,64.45
2022-09-22T22:24:43.552Z,64.33
2022-09-22T22:27:11.503Z,65.92
2022-09-22T22:29:39.673Z,62.77
2022-09-22T22:32:09.334Z,64.49
2022-09-22T22:34:37.843Z,64.73
2022-09-22T22:37:09.717Z,65.73
2022-09-22T22:39:38.124Z,66.72
2022-09-22T22:42:06.344Z,65.92
2022-09-22T22:44:35.312Z,68.80
2022-09-22T22:47:03.543Z,67.39
2022-09-22T22:49:31.476Z,66.45
2022-09-22T22:51:59.322Z,66.56
2022-09-22T22:54:27.314Z,67.64
2022-09-22T22:56:54.944Z,67.70
2022-09-22T22:59:22.526Z,67.16
2022-09-22T23:01:50.491Z,68.13
2022-09-22T23:04:18.132Z,68.21
2022-09-22T23:06:47.432Z,65.41
2022-09-22T23:09:16.668Z,66.45
2022-09-22T23:11:45.963Z,67.16
2022-09-22T23:14:16.125Z,71.85
2022-09-22T23:16:46.595Z,69.77
2022-09-22T23:19:16.984Z,68.69
2022-09-22T23:21:46.021Z,66.14
2022-09-22T23:24:16.336Z,68.24
2022-09-22T23:26:45.717Z,70.77
2022-09-22T23:29:14.135Z,71.20
2022-09-22T23:31:42.128Z,68.59
2022-09-22T23:34:09.888Z,69.36
2022-09-22T23:36:39.698Z,68.54
2022-09-22T23:39:07.558Z,67.80
2022-09-22T23:41:36.811Z,69.52
2022-09-22T23:44:08.809Z,72.61
2022-09-22T23:46:38.422Z,69.97
2022-09-22T23:49:06.802Z,69.83
2022-09-22T23:51:34.580Z,67.98
2022-09-22T23:54:02.626Z,71.25
2022-09-22T23:56:30.635Z,71.72
2022-09-22T23:58:58.329Z,75.19
